createdAt,value
2018-05-08T00:00:36.536Z,62.55
2018-05-08T00:01:36.569Z,63.12
2018-05-08T00:02:36.599Z,62.84
2018-05-08T00:03:36.620Z,63.02
2018-05-08T00:04:36.649Z,63.02
2018-05-08T00:05:36.678Z,63.32
2018-05-08T00:06:36.706Z,63.22
2018-05-08T00:07:36.737Z,64.18
2018-05-08T00:08:36.764Z,63.79
2018-05-08T00:09:36.785Z,64.05
2018-05-08T00:10:36.819Z,64.05
2018-05-08T00:11:36.844Z,64.05
2018-05-08T00:12:36.874Z,64.92
2018-05-08T00:13:36.900Z,64.72
2018-05-08T00:14:36.929Z,64.28
2018-05-08T00:15:36.953Z,64.43
2018-05-08T00:16:36.984Z,64.63
2018-05-08T00:17:37.013Z,64.37
2018-05-08T00:18:37.041Z,64.53
2018-05-08T00:19:37.073Z,64.63
2018-05-08T00:20:37.101Z,64.25
2018-05-08T00:21:37.123Z,64.82
2018-05-08T00:22:37.149Z,64.82
2018-05-08T00:23:37.183Z,64.53
2018-05-08T00:24:37.204Z,64.63
2018-05-08T00:25:37.236Z,64.53
2018-05-08T00:26:37.263Z,64.92
2018-05-08T00:27:37.294Z,64.82
2018-05-08T00:28:37.319Z,64.43
2018-05-08T00:29:37.343Z,64.72
2018-05-08T00:30:37.377Z,64.53
2018-05-08T00:31:37.405Z,65.11
2018-05-08T00:32:37.427Z,64.72
2018-05-08T00:33:37.459Z,65.49
2018-05-08T00:34:37.483Z,65.11
2018-05-08T00:35:37.516Z,65.69
2018-05-08T00:36:37.540Z,65.49
2018-05-08T00:37:37.604Z,66.16
2018-05-08T00:38:37.599Z,66.16
2018-05-08T00:39:37.627Z,65.78
2018-05-08T00:40:37.654Z,65.59
2018-05-08T00:41:37.678Z,65.78
2018-05-08T00:42:37.708Z,66.03
2018-05-08T00:43:37.732Z,65.75
2018-05-08T00:44:37.766Z,66.52
2018-05-08T00:45:37.794Z,66.74
2018-05-08T00:46:37.823Z,66.90
2018-05-08T00:47:37.854Z,67.19
2018-05-08T00:48:37.876Z,67.00
2018-05-08T00:49:37.902Z,66.90
2018-05-08T00:50:37.932Z,66.71
2018-05-08T00:51:37.954Z,66.90
2018-05-08T00:52:37.983Z,67.00
2018-05-08T00:53:38.014Z,67.19
2018-05-08T00:54:38.041Z,67.09
2018-05-08T00:55:38.072Z,66.33
2018-05-08T00:56:38.096Z,66.71
2018-05-08T00:57:38.121Z,66.80
2018-05-08T00:58:38.152Z,66.61
2018-05-08T00:59:38.178Z,67.00
2018-05-08T01:00:38.206Z,67.19
2018-05-08T01:01:38.232Z,67.19
2018-05-08T01:02:38.265Z,67.57
2018-05-08T01:03:38.286Z,67.29
2018-05-08T01:04:38.312Z,67.38
2018-05-08T01:05:38.345Z,67.47
2018-05-08T01:06:38.369Z,67.19
2018-05-08T01:07:38.397Z,67.47
2018-05-08T01:08:38.426Z,67.57
2018-05-08T01:09:38.446Z,67.47
2018-05-08T01:10:38.477Z,67.76
2018-05-08T01:11:38.583Z,67.57
2018-05-08T01:12:38.536Z,67.47
2018-05-08T01:13:38.561Z,67.57
2018-05-08T01:14:38.592Z,67.76
2018-05-08T01:15:38.617Z,68.24
2018-05-08T01:16:38.649Z,68.05
2018-05-08T01:17:38.667Z,68.05
2018-05-08T01:18:38.701Z,67.96
2018-05-08T01:19:38.721Z,68.79
2018-05-08T01:20:38.757Z,68.05
2018-05-08T01:21:38.777Z,68.73
2018-05-08T01:22:38.808Z,68.88
2018-05-08T01:23:38.831Z,68.50
2018-05-08T01:24:38.860Z,68.69
2018-05-08T01:25:38.885Z,68.88
2018-05-08T01:26:38.911Z,68.40
2018-05-08T01:27:38.964Z,69.17
2018-05-08T01:28:38.966Z,69.17
2018-05-08T01:29:39.000Z,69.17
2018-05-08T01:30:39.025Z,69.26
2018-05-08T01:31:39.119Z,69.17
2018-05-08T01:32:39.080Z,68.98
2018-05-08T01:33:39.110Z,69.07
2018-05-08T01:34:39.130Z,68.98
2018-05-08T01:35:39.158Z,68.59
2018-05-08T01:36:39.185Z,69.56
2018-05-08T01:37:39.220Z,68.98
2018-05-08T01:38:39.241Z,69.36
2018-05-08T01:39:39.270Z,69.56
2018-05-08T01:40:39.295Z,68.79
2018-05-08T01:41:39.330Z,69.26
2018-05-08T01:42:39.353Z,69.56
2018-05-08T01:43:39.375Z,69.07
2018-05-08T01:44:39.408Z,69.46
2018-05-08T01:45:39.430Z,69.65
2018-05-08T01:46:39.462Z,69.65
2018-05-08T01:47:39.486Z,69.65
2018-05-08T01:48:39.510Z,69.07
2018-05-08T01:49:39.542Z,69.56
2018-05-08T01:50:39.571Z,69.84
2018-05-08T01:51:39.595Z,69.93
2018-05-08T01:52:39.619Z,69.65
2018-05-08T01:53:39.645Z,69.93
2018-05-08T01:54:39.676Z,69.65
2018-05-08T01:55:39.699Z,70.03
2018-05-08T01:56:39.733Z,70.09
2018-05-08T01:57:39.755Z,70.57
2018-05-08T01:58:39.782Z,70.38
2018-05-08T01:59:39.809Z,70.96
2018-05-08T02:00:39.840Z,71.25
2018-05-08T02:01:39.866Z,71.25
2018-05-08T02:02:39.898Z,71.15
2018-05-08T02:03:39.923Z,71.05
2018-05-08T02:04:39.947Z,70.86
2018-05-08T02:05:39.979Z,71.25
2018-05-08T02:06:40.001Z,71.15
2018-05-08T02:07:40.030Z,71.15
2018-05-08T02:08:40.058Z,70.86
2018-05-08T02:09:40.085Z,71.53
2018-05-08T02:10:40.119Z,71.72
2018-05-08T02:11:40.139Z,71.44
2018-05-08T02:12:40.162Z,71.34
2018-05-08T02:13:40.195Z,71.44
2018-05-08T02:14:40.222Z,71.34
2018-05-08T02:15:40.245Z,71.63
2018-05-08T02:16:40.268Z,70.96
2018-05-08T02:17:40.302Z,71.44
2018-05-08T02:18:40.323Z,71.53
2018-05-08T02:19:40.350Z,71.34
2018-05-08T02:20:40.377Z,71.34
2018-05-08T02:21:40.411Z,71.44
2018-05-08T02:22:40.432Z,71.63
2018-05-08T02:23:40.459Z,71.44
2018-05-08T02:24:40.489Z,71.72
2018-05-08T02:25:40.515Z,71.53
2018-05-08T02:26:40.541Z,71.72
2018-05-08T02:27:40.568Z,71.63
2018-05-08T02:28:40.594Z,71.63
2018-05-08T02:29:40.707Z,71.92
2018-05-08T02:30:40.648Z,72.30
2018-05-08T02:31:40.674Z,72.20
2018-05-08T02:32:40.705Z,72.59
2018-05-08T02:33:40.729Z,71.82
2018-05-08T02:34:40.762Z,72.39
2018-05-08T02:35:40.787Z,72.07
2018-05-08T02:36:40.807Z,72.39
2018-05-08T02:37:40.842Z,72.49
2018-05-08T02:38:40.871Z,72.49
2018-05-08T02:39:40.898Z,72.68
2018-05-08T02:40:40.918Z,72.49
2018-05-08T02:41:40.945Z,73.03
2018-05-08T02:42:40.979Z,73.32
2018-05-08T02:43:41.002Z,73.41
2018-05-08T02:44:41.032Z,73.61
2018-05-08T02:45:41.056Z,73.22
2018-05-08T02:46:41.082Z,73.51
2018-05-08T02:47:41.117Z,73.70
2018-05-08T02:48:41.137Z,73.51
2018-05-08T02:49:41.158Z,72.94
2018-05-08T02:50:41.189Z,73.22
2018-05-08T02:51:41.213Z,73.32
2018-05-08T02:52:41.255Z,73.90
2018-05-08T02:53:41.267Z,73.61
2018-05-08T02:54:41.299Z,73.32
2018-05-08T02:55:41.325Z,73.22
2018-05-08T02:56:41.364Z,74.08
2018-05-08T02:57:41.374Z,73.51
2018-05-08T02:58:41.403Z,73.90
2018-05-08T02:59:41.431Z,73.61
2018-05-08T03:00:41.457Z,73.22
2018-05-08T03:01:41.486Z,73.32
2018-05-08T03:02:41.514Z,73.55
2018-05-08T03:03:41.535Z,73.22
2018-05-08T03:04:41.567Z,73.03
2018-05-08T03:05:41.600Z,73.51
2018-05-08T03:06:41.616Z,74.08
2018-05-08T03:07:41.642Z,74.08
2018-05-08T03:08:41.676Z,74.57
2018-05-08T03:09:41.698Z,74.27
2018-05-08T03:10:41.722Z,74.18
2018-05-08T03:11:41.748Z,73.80
2018-05-08T03:12:41.778Z,73.90
2018-05-08T03:13:41.803Z,74.43
2018-05-08T03:14:41.833Z,74.76
2018-05-08T03:15:41.856Z,74.37
2018-05-08T03:16:41.939Z,74.47
2018-05-08T03:17:41.915Z,74.91
2018-05-08T03:18:41.936Z,74.66
2018-05-08T03:19:41.971Z,74.66
2018-05-08T03:20:41.998Z,74.95
2018-05-08T03:21:42.015Z,75.33
2018-05-08T03:22:42.049Z,75.52
2018-05-08T03:23:42.074Z,75.20
2018-05-08T03:24:42.105Z,75.10
2018-05-08T03:25:42.130Z,74.91
2018-05-08T03:26:42.150Z,75.01
2018-05-08T03:27:42.185Z,75.68
2018-05-08T03:28:42.204Z,75.48
2018-05-08T03:29:42.229Z,75.39
2018-05-08T03:30:42.255Z,75.20
2018-05-08T03:31:42.292Z,75.29
2018-05-08T03:32:42.340Z,75.39
2018-05-08T03:33:42.334Z,75.68
2018-05-08T03:34:42.365Z,75.39
2018-05-08T03:35:42.394Z,75.20
2018-05-08T03:36:42.419Z,75.48
2018-05-08T03:37:42.449Z,75.29
2018-05-08T03:38:42.479Z,75.29
2018-05-08T03:39:42.499Z,75.29
2018-05-08T03:40:42.534Z,75.48
2018-05-08T03:41:42.551Z,75.20
2018-05-08T03:42:42.585Z,75.01
2018-05-08T03:43:42.609Z,75.20
2018-05-08T03:44:42.630Z,74.76
2018-05-08T03:45:42.654Z,75.01
2018-05-08T03:46:42.687Z,74.33
2018-05-08T03:47:42.709Z,74.62
2018-05-08T03:48:42.739Z,74.91
2018-05-08T03:49:42.768Z,75.01
2018-05-08T03:50:42.790Z,75.29
2018-05-08T03:51:42.818Z,75.48
2018-05-08T03:52:42.840Z,75.39
2018-05-08T03:53:42.878Z,75.20
2018-05-08T03:54:42.899Z,75.39
2018-05-08T03:55:42.927Z,75.87
2018-05-08T03:56:42.953Z,76.06
2018-05-08T03:57:42.983Z,75.39
2018-05-08T03:58:43.008Z,75.87
2018-05-08T03:59:43.028Z,75.29
2018-05-08T04:00:43.057Z,75.39
2018-05-08T04:01:43.083Z,75.68
2018-05-08T04:02:43.106Z,75.96
2018-05-08T04:03:43.134Z,76.06
2018-05-08T04:04:43.162Z,76.35
2018-05-08T04:05:43.193Z,75.87
2018-05-08T04:06:43.218Z,76.25
2018-05-08T04:07:43.248Z,75.96
2018-05-08T04:08:43.275Z,76.15
2018-05-08T04:09:43.301Z,76.15
2018-05-08T04:10:43.322Z,76.15
2018-05-08T04:11:43.353Z,76.64
2018-05-08T04:12:43.377Z,76.25
2018-05-08T04:13:43.408Z,76.64
2018-05-08T04:14:43.436Z,76.44
2018-05-08T04:15:43.458Z,76.73
2018-05-08T04:16:43.483Z,76.64
2018-05-08T04:17:43.505Z,76.54
2018-05-08T04:18:43.533Z,76.35
2018-05-08T04:19:43.562Z,76.06
2018-05-08T04:20:43.584Z,76.35
2018-05-08T04:21:43.614Z,76.25
2018-05-08T04:22:43.638Z,75.96
2018-05-08T04:23:43.669Z,75.71
2018-05-08T04:24:43.697Z,75.87
2018-05-08T04:25:43.720Z,75.87
2018-05-08T04:26:43.748Z,75.81
2018-05-08T04:27:43.772Z,75.52
2018-05-08T04:28:43.798Z,75.87
2018-05-08T04:29:43.826Z,76.10
2018-05-08T04:30:43.858Z,75.90
2018-05-08T04:31:43.882Z,75.87
2018-05-08T04:32:43.906Z,75.62
2018-05-08T04:33:43.937Z,75.43
2018-05-08T04:34:43.958Z,74.95
2018-05-08T04:35:43.993Z,75.52
2018-05-08T04:36:44.062Z,75.48
2018-05-08T04:37:44.039Z,75.33
2018-05-08T04:38:44.062Z,74.91
2018-05-08T04:39:44.088Z,75.29
2018-05-08T04:40:44.118Z,75.43
2018-05-08T04:41:44.154Z,75.43
2018-05-08T04:42:44.173Z,75.39
2018-05-08T04:43:44.201Z,75.29
2018-05-08T04:44:44.223Z,75.71
2018-05-08T04:45:44.248Z,76.10
2018-05-08T04:46:44.278Z,75.43
2018-05-08T04:47:44.305Z,74.57
2018-05-08T04:48:44.332Z,74.66
2018-05-08T04:49:44.361Z,75.23
2018-05-08T04:50:44.382Z,74.47
2018-05-08T04:51:44.413Z,74.57
2018-05-08T04:52:44.441Z,74.76
2018-05-08T04:53:44.461Z,74.47
2018-05-08T04:54:44.486Z,74.66
2018-05-08T04:55:44.519Z,74.76
2018-05-08T04:56:44.546Z,75.52
2018-05-08T04:57:44.572Z,75.33
2018-05-08T04:58:44.597Z,74.37
2018-05-08T04:59:44.622Z,75.71
2018-05-08T05:00:44.652Z,75.52
2018-05-08T05:01:44.677Z,75.23
2018-05-08T05:02:44.748Z,74.85
2018-05-08T05:03:44.735Z,73.99
2018-05-08T05:04:44.783Z,74.57
2018-05-08T05:05:44.795Z,74.47
2018-05-08T05:06:44.810Z,74.76
2018-05-08T05:07:44.837Z,73.90
2018-05-08T05:08:44.865Z,73.90
2018-05-08T05:09:44.891Z,73.99
2018-05-08T05:10:44.917Z,73.51
2018-05-08T05:11:44.942Z,73.51
2018-05-08T05:12:44.967Z,73.41
2018-05-08T05:13:44.995Z,73.65
2018-05-08T05:14:45.021Z,73.65
2018-05-08T05:15:45.051Z,72.97
2018-05-08T05:16:45.117Z,73.03
2018-05-08T05:17:45.103Z,72.88
2018-05-08T05:18:45.131Z,72.97
2018-05-08T05:19:45.160Z,73.16
2018-05-08T05:20:45.184Z,73.22
2018-05-08T05:21:45.210Z,73.16
2018-05-08T05:22:45.235Z,73.07
2018-05-08T05:23:45.263Z,73.93
2018-05-08T05:24:45.292Z,73.55
2018-05-08T05:25:45.316Z,73.65
2018-05-08T05:26:45.344Z,72.49
2018-05-08T05:27:45.370Z,72.30
2018-05-08T05:28:45.396Z,72.49
2018-05-08T05:29:45.420Z,72.59
2018-05-08T05:30:45.454Z,72.49
2018-05-08T05:31:45.476Z,72.68
2018-05-08T05:32:45.503Z,72.11
2018-05-08T05:33:45.530Z,72.30
2018-05-08T05:34:45.559Z,72.49
2018-05-08T05:35:45.590Z,72.59
2018-05-08T05:36:45.622Z,71.63
2018-05-08T05:37:45.636Z,71.82
2018-05-08T05:38:45.663Z,72.01
2018-05-08T05:39:45.705Z,72.49
2018-05-08T05:40:45.725Z,71.92
2018-05-08T05:41:45.743Z,71.63
2018-05-08T05:42:45.770Z,71.44
2018-05-08T05:43:45.795Z,71.34
2018-05-08T05:44:45.825Z,71.82
2018-05-08T05:45:45.850Z,71.53
2018-05-08T05:46:45.875Z,71.53
2018-05-08T05:47:45.916Z,71.28
2018-05-08T05:48:45.933Z,71.76
2018-05-08T05:49:45.957Z,70.90
2018-05-08T05:50:45.986Z,71.09
2018-05-08T05:51:46.011Z,71.37
2018-05-08T05:52:46.094Z,71.37
2018-05-08T05:53:46.069Z,70.90
2018-05-08T05:54:46.095Z,71.09
2018-05-08T05:55:46.124Z,70.90
2018-05-08T05:56:46.145Z,70.13
2018-05-08T05:57:46.176Z,70.61
2018-05-08T05:58:46.201Z,70.42
2018-05-08T05:59:46.233Z,69.46
2018-05-08T06:00:46.259Z,69.74
2018-05-08T06:01:46.282Z,70.13
2018-05-08T06:02:46.313Z,70.80
2018-05-08T06:03:46.340Z,70.23
2018-05-08T06:04:46.365Z,70.36
2018-05-08T06:05:46.389Z,69.07
2018-05-08T06:06:46.415Z,69.20
2018-05-08T06:07:46.451Z,69.78
2018-05-08T06:08:46.470Z,69.11
2018-05-08T06:09:46.502Z,69.30
2018-05-08T06:10:46.526Z,69.30
2018-05-08T06:11:46.556Z,69.30
2018-05-08T06:12:46.582Z,68.63
2018-05-08T06:13:46.607Z,67.96
2018-05-08T06:14:46.636Z,68.34
2018-05-08T06:15:46.660Z,68.15
2018-05-08T06:16:46.689Z,68.73
2018-05-08T06:17:46.719Z,69.01
2018-05-08T06:18:46.749Z,67.76
2018-05-08T06:19:46.771Z,68.15
2018-05-08T06:20:46.796Z,68.91
2018-05-08T06:21:46.827Z,68.63
2018-05-08T06:22:46.848Z,68.63
2018-05-08T06:23:46.882Z,68.63
2018-05-08T06:24:46.914Z,68.73
2018-05-08T06:25:46.934Z,69.20
2018-05-08T06:26:46.961Z,68.73
2018-05-08T06:27:46.986Z,67.57
2018-05-08T06:28:47.013Z,67.57
2018-05-08T06:29:47.045Z,68.05
2018-05-08T06:30:47.073Z,67.19
2018-05-08T06:31:47.129Z,67.67
2018-05-08T06:32:47.123Z,68.15
2018-05-08T06:33:47.157Z,68.28
2018-05-08T06:34:47.177Z,67.99
2018-05-08T06:35:47.208Z,67.03
2018-05-08T06:36:47.237Z,66.93
2018-05-08T06:37:47.258Z,67.41
2018-05-08T06:38:47.289Z,67.32
2018-05-08T06:39:47.317Z,67.13
2018-05-08T06:40:47.343Z,67.13
2018-05-08T06:41:47.372Z,66.93
2018-05-08T06:42:47.401Z,66.93
2018-05-08T06:43:47.428Z,67.41
2018-05-08T06:44:47.454Z,67.03
2018-05-08T06:45:47.479Z,67.13
2018-05-08T06:46:47.559Z,65.88
2018-05-08T06:47:47.537Z,65.78
2018-05-08T06:48:47.569Z,66.64
2018-05-08T06:49:47.594Z,66.64
2018-05-08T06:50:47.617Z,65.01
2018-05-08T06:51:47.659Z,65.20
2018-05-08T06:52:47.678Z,65.20
2018-05-08T06:53:47.702Z,65.11
2018-05-08T06:54:47.781Z,64.72
2018-05-08T06:55:47.759Z,65.53
2018-05-08T06:56:47.787Z,65.05
2018-05-08T06:57:47.814Z,64.76
2018-05-08T06:58:47.836Z,64.76
2018-05-08T06:59:47.867Z,64.76
2018-05-08T07:00:47.891Z,63.99
2018-05-08T07:01:47.926Z,63.51
2018-05-08T07:02:47.952Z,62.16
2018-05-08T07:03:47.981Z,62.35
2018-05-08T07:04:48.008Z,62.16
2018-05-08T07:05:48.039Z,62.16
2018-05-08T07:06:48.060Z,62.48
2018-05-08T07:07:48.091Z,62.68
2018-05-08T07:08:48.117Z,61.91
2018-05-08T07:09:48.154Z,61.61
2018-05-08T07:10:48.173Z,61.71
2018-05-08T07:11:48.201Z,60.94
2018-05-08T07:12:48.227Z,60.75
2018-05-08T07:13:48.255Z,61.04
2018-05-08T07:14:48.281Z,61.04
2018-05-08T07:15:48.402Z,61.14
2018-05-08T07:16:48.345Z,60.85
2018-05-08T07:17:48.365Z,60.08
2018-05-08T07:18:48.391Z,60.21
2018-05-08T07:19:48.430Z,59.53
2018-05-08T07:20:48.445Z,59.50
2018-05-08T07:21:48.476Z,59.22
2018-05-08T07:22:48.507Z,59.02
2018-05-08T07:23:48.532Z,58.95
2018-05-08T07:24:48.560Z,59.72
2018-05-08T07:25:48.585Z,58.67
2018-05-08T07:26:48.615Z,58.18
2018-05-08T07:27:48.649Z,57.80
2018-05-08T07:28:48.675Z,57.32
2018-05-08T07:29:48.701Z,56.45
2018-05-08T07:30:48.759Z,57.13
2018-05-08T07:31:48.756Z,57.13
2018-05-08T07:32:48.784Z,57.13
2018-05-08T07:33:48.814Z,57.13
2018-05-08T07:34:48.846Z,56.45
2018-05-08T07:35:48.868Z,57.42
2018-05-08T07:36:48.895Z,57.60
2018-05-08T07:37:48.926Z,57.54
2018-05-08T07:38:48.952Z,57.90
2018-05-08T07:39:48.989Z,57.92
2018-05-08T07:40:49.004Z,57.15
2018-05-08T07:41:49.035Z,56.96
2018-05-08T07:42:49.065Z,57.25
2018-05-08T07:43:49.105Z,56.96
2018-05-08T07:44:49.124Z,56.77
2018-05-08T07:45:49.148Z,55.90
2018-05-08T07:46:49.184Z,55.62
2018-05-08T07:47:49.210Z,54.46
2018-05-08T07:48:49.235Z,54.85
2018-05-08T07:49:49.270Z,55.13
2018-05-08T07:50:49.289Z,54.75
2018-05-08T07:51:49.385Z,54.65
2018-05-08T07:52:49.346Z,54.46
2018-05-08T07:53:49.369Z,53.98
2018-05-08T07:54:49.399Z,53.81
2018-05-08T07:55:49.423Z,54.68
2018-05-08T07:56:49.453Z,53.91
2018-05-08T07:57:49.484Z,54.00
2018-05-08T07:58:49.515Z,54.00
2018-05-08T07:59:49.544Z,53.53
2018-05-08T08:00:49.568Z,54.00
2018-05-08T08:01:49.603Z,54.10
2018-05-08T08:02:49.626Z,53.62
2018-05-08T08:03:49.651Z,52.56
2018-05-08T08:04:49.679Z,52.85
2018-05-08T08:05:49.714Z,52.56
2018-05-08T08:06:49.734Z,51.98
2018-05-08T08:07:49.761Z,51.79
2018-05-08T08:08:49.793Z,52.30
2018-05-08T08:09:49.826Z,52.78
2018-05-08T08:10:49.849Z,53.05
2018-05-08T08:11:49.877Z,52.78
2018-05-08T08:12:49.904Z,52.30
2018-05-08T08:13:49.938Z,51.53
2018-05-08T08:14:49.957Z,50.95
2018-05-08T08:15:49.985Z,50.57
2018-05-08T08:16:50.020Z,50.37
2018-05-08T08:17:50.048Z,49.51
2018-05-08T08:18:50.073Z,49.70
2018-05-08T08:19:50.108Z,49.51
2018-05-08T08:20:50.129Z,49.63
2018-05-08T08:21:50.157Z,49.15
2018-05-08T08:22:50.183Z,48.76
2018-05-08T08:23:50.228Z,49.05
2018-05-08T08:24:50.248Z,49.63
2018-05-08T08:25:50.273Z,49.73
2018-05-08T08:26:50.316Z,49.24
2018-05-08T08:27:50.332Z,48.76
2018-05-08T08:28:50.357Z,49.05
2018-05-08T08:29:50.467Z,49.05
2018-05-08T08:30:50.417Z,48.86
2018-05-08T08:31:50.443Z,49.24
2018-05-08T08:32:50.473Z,49.63
2018-05-08T08:33:50.499Z,49.63
2018-05-08T08:34:50.532Z,48.76
2018-05-08T08:35:50.553Z,48.95
2018-05-08T08:36:50.587Z,48.95
2018-05-08T08:37:50.612Z,49.17
2018-05-08T08:38:50.644Z,48.21
2018-05-08T08:39:50.671Z,48.69
2018-05-08T08:40:50.729Z,48.88
2018-05-08T08:41:50.727Z,48.69
2018-05-08T08:42:50.752Z,49.27
2018-05-08T08:43:50.784Z,48.97
2018-05-08T08:44:50.810Z,48.88
2018-05-08T08:45:50.837Z,47.34
2018-05-08T08:46:50.872Z,47.72
2018-05-08T08:47:50.909Z,47.92
2018-05-08T08:48:50.924Z,47.14
2018-05-08T08:49:50.953Z,48.01
2018-05-08T08:50:50.981Z,47.44
2018-05-08T08:51:51.011Z,48.30
2018-05-08T08:52:51.043Z,47.53
2018-05-08T08:53:51.073Z,48.11
2018-05-08T08:54:51.092Z,48.21
2018-05-08T08:55:51.129Z,46.56
2018-05-08T08:56:51.161Z,47.24
2018-05-08T08:57:51.180Z,46.56
2018-05-08T08:58:51.216Z,47.14
2018-05-08T08:59:51.240Z,46.40
2018-05-08T09:00:51.271Z,46.01
2018-05-08T09:01:51.298Z,46.11
2018-05-08T09:02:51.328Z,46.78
2018-05-08T09:03:51.364Z,46.01
2018-05-08T09:04:51.394Z,45.72
2018-05-08T09:05:51.410Z,46.01
2018-05-08T09:06:51.438Z,46.20
2018-05-08T09:07:51.469Z,45.82
2018-05-08T09:08:51.499Z,45.72
2018-05-08T09:09:51.530Z,45.24
2018-05-08T09:10:51.557Z,44.66
2018-05-08T09:11:51.582Z,43.98
2018-05-08T09:12:51.612Z,44.78
2018-05-08T09:13:51.640Z,43.81
2018-05-08T09:14:51.673Z,43.79
2018-05-08T09:15:51.704Z,44.78
2018-05-08T09:16:51.772Z,45.07
2018-05-08T09:17:51.751Z,45.07
2018-05-08T09:18:51.783Z,43.81
2018-05-08T09:19:51.881Z,43.91
2018-05-08T09:20:51.842Z,43.33
2018-05-08T09:21:51.866Z,43.91
2018-05-08T09:22:51.897Z,43.52
2018-05-08T09:23:51.927Z,43.14
2018-05-08T09:24:51.957Z,42.75
2018-05-08T09:25:51.985Z,43.14
2018-05-08T09:26:52.015Z,43.24
2018-05-08T09:27:52.040Z,42.94
2018-05-08T09:28:52.067Z,42.66
2018-05-08T09:29:52.102Z,42.56
2018-05-08T09:30:52.132Z,41.91
2018-05-08T09:31:52.160Z,41.61
2018-05-08T09:32:52.243Z,42.68
2018-05-08T09:33:52.220Z,42.97
2018-05-08T09:34:52.246Z,42.87
2018-05-08T09:35:52.271Z,40.94
2018-05-08T09:36:52.404Z,41.03
2018-05-08T09:37:52.335Z,40.75
2018-05-08T09:38:52.361Z,41.13
2018-05-08T09:39:52.399Z,40.75
2018-05-08T09:40:52.462Z,40.07
2018-05-08T09:41:52.448Z,40.65
2018-05-08T09:42:52.480Z,41.91
2018-05-08T09:43:52.512Z,41.03
2018-05-08T09:44:52.535Z,40.28
2018-05-08T09:45:52.561Z,40.26
2018-05-08T09:46:52.594Z,40.38
2018-05-08T09:47:52.623Z,39.70
2018-05-08T09:48:52.717Z,39.41
2018-05-08T09:49:52.676Z,40.09
2018-05-08T09:50:52.786Z,40.57
2018-05-08T09:51:52.740Z,40.86
2018-05-08T09:52:52.765Z,40.28
2018-05-08T09:53:52.794Z,40.57
2018-05-08T09:54:52.823Z,40.28
2018-05-08T09:55:52.850Z,40.57
2018-05-08T09:56:52.885Z,40.57
2018-05-08T09:57:52.913Z,40.67
2018-05-08T09:58:52.935Z,40.67
2018-05-08T09:59:52.965Z,41.44
2018-05-08T10:00:52.998Z,41.15
2018-05-08T10:01:53.030Z,40.86
2018-05-08T10:02:53.059Z,40.38
2018-05-08T10:03:53.094Z,40.19
2018-05-08T10:04:53.114Z,39.90
2018-05-08T10:05:53.144Z,39.80
2018-05-08T10:06:53.173Z,39.92
2018-05-08T10:07:53.200Z,40.20
2018-05-08T10:08:53.236Z,39.53
2018-05-08T10:09:53.260Z,40.30
2018-05-08T10:10:53.284Z,40.11
2018-05-08T10:11:53.323Z,40.20
2018-05-08T10:12:53.347Z,39.53
2018-05-08T10:13:53.380Z,38.85
2018-05-08T10:14:53.403Z,38.95
2018-05-08T10:15:53.447Z,38.68
2018-05-08T10:16:53.472Z,38.28
2018-05-08T10:17:53.493Z,38.29
2018-05-08T10:18:53.525Z,37.60
2018-05-08T10:19:53.557Z,37.60
2018-05-08T10:20:53.580Z,37.70
2018-05-08T10:21:53.611Z,38.08
2018-05-08T10:22:53.641Z,38.78
2018-05-08T10:23:53.677Z,37.81
2018-05-08T10:24:53.701Z,38.29
2018-05-08T10:25:53.733Z,39.06
2018-05-08T10:26:53.758Z,37.81
2018-05-08T10:27:53.785Z,37.81
2018-05-08T10:28:53.815Z,38.00
2018-05-08T10:29:53.855Z,37.81
2018-05-08T10:30:53.878Z,38.50
2018-05-08T10:31:53.907Z,37.54
2018-05-08T10:32:54.047Z,37.63
2018-05-08T10:33:53.969Z,37.73
2018-05-08T10:34:53.998Z,37.24
2018-05-08T10:35:54.023Z,37.92
2018-05-08T10:36:54.056Z,36.86
2018-05-08T10:37:54.080Z,37.34
2018-05-08T10:38:54.115Z,37.92
2018-05-08T10:39:54.142Z,37.46
2018-05-08T10:40:54.170Z,36.98
2018-05-08T10:41:54.204Z,36.20
2018-05-08T10:42:54.232Z,35.81
2018-05-08T10:43:54.258Z,36.88
2018-05-08T10:44:54.285Z,35.44
2018-05-08T10:45:54.313Z,34.19
2018-05-08T10:46:54.351Z,34.86
2018-05-08T10:47:54.373Z,33.51
2018-05-08T10:48:54.403Z,34.28
2018-05-08T10:49:54.438Z,33.51
2018-05-08T10:50:54.462Z,33.41
2018-05-08T10:51:54.497Z,33.72
2018-05-08T10:52:54.532Z,33.23
2018-05-08T10:53:54.554Z,33.23
2018-05-08T10:54:54.592Z,33.34
2018-05-08T10:55:54.624Z,31.50
2018-05-08T10:56:54.657Z,32.39
2018-05-08T10:57:54.683Z,31.52
2018-05-08T10:58:54.707Z,30.47
2018-05-08T10:59:54.743Z,29.71
2018-05-08T11:00:54.772Z,29.32
2018-05-08T11:01:54.808Z,29.41
2018-05-08T11:02:54.833Z,28.66
2018-05-08T11:03:54.863Z,27.61
2018-05-08T11:04:54.896Z,27.36
2018-05-08T11:05:54.930Z,25.43
2018-05-08T11:06:54.963Z,23.90
2018-05-08T11:07:54.995Z,22.56
2018-05-08T11:08:55.026Z,21.51
2018-05-08T11:09:55.062Z,21.34
2018-05-08T11:10:55.093Z,19.68
2018-05-08T11:11:55.132Z,19.41
2018-05-08T11:12:55.176Z,18.65
2018-05-08T11:13:55.200Z,18.74
2018-05-08T11:14:55.235Z,17.94
2018-05-08T11:15:55.270Z,17.96
2018-05-08T11:16:55.303Z,17.69
2018-05-08T11:17:55.335Z,17.49
2018-05-08T11:18:55.373Z,16.88
2018-05-08T11:19:55.410Z,16.30
2018-05-08T11:20:55.448Z,17.00
2018-05-08T11:21:55.487Z,15.92
2018-05-08T11:22:55.524Z,16.50
2018-05-08T11:23:55.556Z,17.66
2018-05-08T11:24:55.587Z,17.65
2018-05-08T11:25:55.629Z,17.77
2018-05-08T11:26:55.667Z,17.00
2018-05-08T11:27:55.702Z,16.42
2018-05-08T11:28:55.736Z,15.95
2018-05-08T11:29:55.772Z,15.47
2018-05-08T11:30:55.813Z,13.62
2018-05-08T11:31:55.852Z,13.81
2018-05-08T11:32:55.890Z,14.48
2018-05-08T11:33:55.929Z,14.87
2018-05-08T11:34:55.962Z,15.05
2018-05-08T11:35:56.008Z,14.87
2018-05-08T11:36:56.038Z,14.69
2018-05-08T11:37:56.077Z,14.20
2018-05-08T11:38:56.119Z,14.48
2018-05-08T11:39:56.153Z,14.01
2018-05-08T11:40:56.202Z,13.43
2018-05-08T11:41:56.226Z,12.35
2018-05-08T11:42:56.268Z,12.55
2018-05-08T11:43:56.307Z,12.26
2018-05-08T11:44:56.346Z,11.37
2018-05-08T11:45:56.384Z,11.66
2018-05-08T11:46:56.417Z,11.87
2018-05-08T11:47:56.457Z,11.85
2018-05-08T11:48:56.495Z,12.04
2018-05-08T11:49:56.542Z,11.27
2018-05-08T11:50:56.570Z,11.28
2018-05-08T11:51:56.611Z,11.47
2018-05-08T11:52:56.654Z,11.26
2018-05-08T11:53:56.691Z,12.45
2018-05-08T11:54:56.730Z,12.54
2018-05-08T11:55:56.775Z,12.23
2018-05-08T11:56:56.804Z,12.43
2018-05-08T11:57:56.850Z,13.02
2018-05-08T11:58:56.886Z,12.43
2018-05-08T11:59:56.928Z,13.02
2018-05-08T12:00:57.021Z,12.45
2018-05-08T12:01:57.004Z,11.48
2018-05-08T12:02:57.041Z,11.38
2018-05-08T12:03:57.091Z,11.56
2018-05-08T12:04:57.125Z,11.37
2018-05-08T12:05:57.166Z,11.28
2018-05-08T12:06:57.200Z,10.89
2018-05-08T12:07:57.245Z,10.71
2018-05-08T12:08:57.286Z,11.40
2018-05-08T12:09:57.320Z,10.71
2018-05-08T12:10:57.360Z,9.73
2018-05-08T12:11:57.399Z,9.61
2018-05-08T12:12:57.446Z,10.81
2018-05-08T12:13:57.475Z,10.61
2018-05-08T12:14:57.514Z,10.02
2018-05-08T12:15:57.563Z,9.74
2018-05-08T12:16:57.598Z,9.42
2018-05-08T12:17:57.645Z,10.99
2018-05-08T12:18:57.679Z,10.80
2018-05-08T12:19:57.719Z,10.70
2018-05-08T12:20:57.757Z,10.69
2018-05-08T12:21:57.805Z,11.18
2018-05-08T12:22:57.841Z,10.71
2018-05-08T12:23:57.888Z,10.69
2018-05-08T12:24:57.923Z,10.89
2018-05-08T12:25:57.962Z,10.69
2018-05-08T12:26:57.998Z,10.60
2018-05-08T12:27:58.046Z,10.61
2018-05-08T12:28:58.082Z,11.49
2018-05-08T12:29:58.125Z,10.70
2018-05-08T12:30:58.173Z,10.02
2018-05-08T12:31:58.204Z,10.13
2018-05-08T12:32:58.247Z,10.82
2018-05-08T12:33:58.285Z,9.83
2018-05-08T12:34:58.522Z,9.73
2018-05-08T12:35:58.376Z,9.93
2018-05-08T12:36:58.420Z,9.83
2018-05-08T12:37:58.450Z,9.53
2018-05-08T12:38:58.489Z,10.61
2018-05-08T12:39:58.535Z,10.31
2018-05-08T12:40:58.574Z,9.12
2018-05-08T12:41:58.633Z,9.74
2018-05-08T12:42:58.665Z,9.24
2018-05-08T12:43:58.700Z,9.03
2018-05-08T12:44:58.739Z,8.94
2018-05-08T12:45:58.802Z,9.23
2018-05-08T12:46:58.826Z,9.81
2018-05-08T12:47:58.868Z,10.11
2018-05-08T12:48:58.983Z,10.60
2018-05-08T12:49:58.956Z,9.81
2018-05-08T12:50:58.988Z,10.10
2018-05-08T12:51:59.036Z,11.10
2018-05-08T12:52:59.079Z,9.72
2018-05-08T12:53:59.123Z,9.72